BAW816 EGLL-EKCH
Flight info
| Callsign | BAW816 |
|---|---|
| Flight time | 1h 20m |
| Altitude | 37000 |
| Route | BPK6J BPK Q295 SOMVA DCT MAVAS DCT ROCZO DCT DOSUR P729 TUDLO TUDLO3A |
| Aircraft | A320/M-SDE3FGIJ1KRWXY/SB1 |
Departure
| Time | 2026-05-06 07:54 |
|---|---|
| Airport | London Heathrow Airport (EGLL) |
Arrival
| Time | 2026-05-06 09:14 |
|---|---|
| Airport | Copenhagen Kastrup Airport (EKCH) |
| Time | Latitude | Longitude | Altitude | Speed | Heading |
|---|---|---|---|---|---|
| 2026-05-06 07:19 | 51.47290 | -0.48007 | 90 ft | 0 kts | 273° |
| 2026-05-06 07:43 | 51.47290 | -0.47977 | 89 ft | 4 kts | 270° |
| 2026-05-06 07:44 | 51.47291 | -0.47934 | 87 ft | 4 kts | 261° |
| 2026-05-06 07:44 | 51.47298 | -0.47893 | 89 ft | 4 kts | 237° |
| 2026-05-06 07:44 | 51.47313 | -0.47872 | 91 ft | 2 kts | 179° |
| 2026-05-06 07:44 | 51.47318 | -0.47872 | 90 ft | 0 kts | 179° |
| 2026-05-06 07:49 | 51.47316 | -0.47872 | 90 ft | 3 kts | 179° |
| 2026-05-06 07:49 | 51.47236 | -0.47871 | 86 ft | 18 kts | 179° |
| 2026-05-06 07:49 | 51.47102 | -0.47870 | 86 ft | 21 kts | 180° |
| 2026-05-06 07:49 | 51.46950 | -0.47869 | 86 ft | 23 kts | 180° |
| 2026-05-06 07:50 | 51.46779 | -0.47868 | 86 ft | 26 kts | 180° |
| 2026-05-06 07:50 | 51.46660 | -0.47906 | 90 ft | 15 kts | 239° |
| 2026-05-06 07:50 | 51.46654 | -0.48101 | 86 ft | 22 kts | 270° |
| 2026-05-06 07:50 | 51.46654 | -0.48363 | 86 ft | 25 kts | 269° |
| 2026-05-06 07:51 | 51.46653 | -0.48647 | 86 ft | 22 kts | 270° |
| 2026-05-06 07:51 | 51.46587 | -0.48773 | 88 ft | 15 kts | 200° |
| 2026-05-06 07:51 | 51.46489 | -0.48742 | 86 ft | 16 kts | 127° |
| 2026-05-06 07:51 | 51.46479 | -0.48660 | 86 ft | 0 kts | 90° |
| 2026-05-06 07:52 | 51.46478 | -0.48642 | 86 ft | 3 kts | 90° |
| 2026-05-06 07:52 | 51.46478 | -0.48605 | 86 ft | 0 kts | 89° |
| 2026-05-06 07:52 | 51.46478 | -0.48598 | 86 ft | 2 kts | 89° |
| 2026-05-06 07:52 | 51.46478 | -0.48574 | 86 ft | 0 kts | 89° |
| 2026-05-06 07:53 | 51.46479 | -0.48574 | 86 ft | 0 kts | 89° |
| 2026-05-06 07:53 | 51.46479 | -0.48565 | 86 ft | 0 kts | 89° |
| 2026-05-06 07:53 | 51.46479 | -0.48550 | 90 ft | 3 kts | 89° |
| 2026-05-06 07:53 | 51.46479 | -0.48542 | 89 ft | 3 kts | 89° |
| 2026-05-06 07:54 | 51.46482 | -0.48186 | 89 ft | 76 kts | 90° |
| 2026-05-06 07:54 | 51.46483 | -0.46894 | 89 ft | 150 kts | 91° |
| 2026-05-06 07:54 | 51.46490 | -0.45044 | 629 ft | 169 kts | 87° |
| 2026-05-06 07:54 | 51.46506 | -0.43141 | 1591 ft | 174 kts | 85° |
| 2026-05-06 07:55 | 51.46638 | -0.41106 | 2295 ft | 194 kts | 73° |
| 2026-05-06 07:55 | 51.47154 | -0.39005 | 2979 ft | 214 kts | 56° |
| 2026-05-06 07:55 | 51.48100 | -0.37009 | 3638 ft | 236 kts | 47° |
| 2026-05-06 07:55 | 51.49190 | -0.34929 | 4339 ft | 248 kts | 47° |
| 2026-05-06 07:56 | 51.50310 | -0.32779 | 5231 ft | 254 kts | 46° |
| 2026-05-06 07:56 | 51.51466 | -0.30558 | 5952 ft | 263 kts | 46° |
| 2026-05-06 07:56 | 51.52568 | -0.28179 | 6817 ft | 271 kts | 57° |
| 2026-05-06 07:56 | 51.53302 | -0.25352 | 7688 ft | 278 kts | 68° |
| 2026-05-06 07:57 | 51.54170 | -0.22590 | 8566 ft | 278 kts | 50° |
| 2026-05-06 07:57 | 51.55578 | -0.20495 | 9443 ft | 277 kts | 29° |
| 2026-05-06 07:57 | 51.57360 | -0.19313 | 10224 ft | 282 kts | 17° |
| 2026-05-06 07:57 | 51.59290 | -0.18193 | 10476 ft | 306 kts | 18° |
| 2026-05-06 07:58 | 51.61391 | -0.17109 | 10716 ft | 326 kts | 16° |
| 2026-05-06 07:58 | 51.63589 | -0.16005 | 11279 ft | 334 kts | 15° |
| 2026-05-06 07:58 | 51.65836 | -0.14909 | 11922 ft | 339 kts | 15° |
| 2026-05-06 07:58 | 51.68113 | -0.13824 | 12626 ft | 343 kts | 14° |
| 2026-05-06 07:59 | 51.70406 | -0.12642 | 13265 ft | 349 kts | 22° |
| 2026-05-06 07:59 | 51.72506 | -0.10619 | 13887 ft | 357 kts | 38° |
| 2026-05-06 07:59 | 51.74215 | -0.07679 | 14477 ft | 363 kts | 55° |
| 2026-05-06 07:59 | 51.75369 | -0.04020 | 15054 ft | 370 kts | 71° |
| 2026-05-06 08:00 | 51.75894 | 0.00078 | 15558 ft | 377 kts | 82° |
| 2026-05-06 08:00 | 51.76247 | 0.04280 | 16156 ft | 379 kts | 81° |
| 2026-05-06 08:00 | 51.76594 | 0.08530 | 16719 ft | 384 kts | 82° |
| 2026-05-06 08:00 | 51.76938 | 0.12828 | 17289 ft | 388 kts | 82° |
| 2026-05-06 08:01 | 51.77286 | 0.17157 | 17897 ft | 391 kts | 82° |
| 2026-05-06 08:01 | 51.77639 | 0.21533 | 18432 ft | 395 kts | 82° |
| 2026-05-06 08:01 | 51.77995 | 0.25950 | 18973 ft | 398 kts | 82° |
| 2026-05-06 08:01 | 51.78355 | 0.30399 | 19508 ft | 401 kts | 82° |
| 2026-05-06 08:02 | 51.78720 | 0.34946 | 19684 ft | 416 kts | 82° |
| 2026-05-06 08:02 | 51.79098 | 0.39652 | 19801 ft | 429 kts | 82° |
| 2026-05-06 08:02 | 51.79479 | 0.44398 | 20103 ft | 437 kts | 82° |
| 2026-05-06 08:02 | 51.79877 | 0.49364 | 20560 ft | 440 kts | 83° |
| 2026-05-06 08:03 | 51.80266 | 0.54291 | 20977 ft | 444 kts | 83° |
| 2026-05-06 08:03 | 51.80654 | 0.59249 | 21399 ft | 446 kts | 83° |
| 2026-05-06 08:03 | 51.81137 | 0.64210 | 21799 ft | 450 kts | 77° |
| 2026-05-06 08:03 | 51.82068 | 0.68900 | 22174 ft | 453 kts | 68° |
| 2026-05-06 08:04 | 51.83317 | 0.73702 | 22583 ft | 456 kts | 67° |
| 2026-05-06 08:04 | 51.84550 | 0.78444 | 22965 ft | 458 kts | 67° |
| 2026-05-06 08:04 | 51.85787 | 0.83212 | 23361 ft | 461 kts | 68° |
| 2026-05-06 08:04 | 51.87031 | 0.88013 | 23708 ft | 464 kts | 68° |
| 2026-05-06 08:05 | 51.88155 | 0.92365 | 24015 ft | 466 kts | 68° |
| 2026-05-06 08:05 | 51.89443 | 0.97377 | 24357 ft | 468 kts | 68° |
| 2026-05-06 08:05 | 51.90691 | 1.02245 | 24718 ft | 469 kts | 68° |
| 2026-05-06 08:05 | 51.91925 | 1.07080 | 25523 ft | 456 kts | 68° |
| 2026-05-06 08:06 | 51.93118 | 1.11768 | 26530 ft | 446 kts | 68° |
| 2026-05-06 08:06 | 51.94297 | 1.16403 | 27098 ft | 445 kts | 68° |
| 2026-05-06 08:06 | 51.95480 | 1.21056 | 27535 ft | 446 kts | 68° |
| 2026-05-06 08:06 | 51.96664 | 1.25731 | 27938 ft | 449 kts | 68° |
| 2026-05-06 08:07 | 51.97852 | 1.30437 | 28330 ft | 451 kts | 68° |
| 2026-05-06 08:07 | 51.99042 | 1.35155 | 28705 ft | 453 kts | 68° |
| 2026-05-06 08:07 | 52.00242 | 1.39912 | 29077 ft | 456 kts | 68° |
| 2026-05-06 08:07 | 52.01432 | 1.44627 | 29426 ft | 458 kts | 68° |
| 2026-05-06 08:08 | 52.02656 | 1.49490 | 29794 ft | 460 kts | 69° |
| 2026-05-06 08:08 | 52.03850 | 1.54246 | 30161 ft | 461 kts | 68° |
| 2026-05-06 08:08 | 52.05057 | 1.59065 | 30627 ft | 459 kts | 69° |
| 2026-05-06 08:08 | 52.06256 | 1.63869 | 31081 ft | 458 kts | 69° |
| 2026-05-06 08:09 | 52.07450 | 1.68660 | 31554 ft | 457 kts | 69° |
| 2026-05-06 08:09 | 52.08637 | 1.73438 | 32009 ft | 456 kts | 69° |
| 2026-05-06 08:09 | 52.09819 | 1.78212 | 32490 ft | 454 kts | 69° |
| 2026-05-06 08:09 | 52.10998 | 1.82993 | 32922 ft | 454 kts | 68° |
| 2026-05-06 08:10 | 52.12168 | 1.87740 | 33420 ft | 452 kts | 69° |
| 2026-05-06 08:10 | 52.13336 | 1.92483 | 33859 ft | 451 kts | 69° |
| 2026-05-06 08:10 | 52.14496 | 1.97216 | 34280 ft | 449 kts | 69° |
| 2026-05-06 08:10 | 52.15652 | 2.01950 | 34595 ft | 450 kts | 69° |
| 2026-05-06 08:11 | 52.16810 | 2.06690 | 34938 ft | 450 kts | 69° |
| 2026-05-06 08:11 | 52.17967 | 2.11434 | 35215 ft | 451 kts | 69° |
| 2026-05-06 08:11 | 52.19125 | 2.16181 | 35535 ft | 451 kts | 69° |
| 2026-05-06 08:11 | 52.20286 | 2.20947 | 35800 ft | 452 kts | 69° |
| 2026-05-06 08:12 | 52.21442 | 2.25700 | 36110 ft | 452 kts | 69° |
| 2026-05-06 08:12 | 52.22598 | 2.30474 | 36376 ft | 453 kts | 69° |
| 2026-05-06 08:12 | 52.23752 | 2.35254 | 36671 ft | 453 kts | 69° |
| 2026-05-06 08:12 | 52.24904 | 2.40044 | 36882 ft | 454 kts | 69° |
| 2026-05-06 08:13 | 52.27221 | 2.49702 | 36937 ft | 459 kts | 69° |
| 2026-05-06 08:13 | 52.29546 | 2.59448 | 36950 ft | 461 kts | 69° |
| 2026-05-06 08:14 | 52.31605 | 2.69364 | 36948 ft | 461 kts | 75° |
| 2026-05-06 08:14 | 52.33377 | 2.79421 | 36948 ft | 461 kts | 75° |
| 2026-05-06 08:15 | 52.35149 | 2.89488 | 36947 ft | 460 kts | 75° |
| 2026-05-06 08:15 | 52.36910 | 2.99551 | 36920 ft | 461 kts | 75° |
| 2026-05-06 08:16 | 52.38659 | 3.09650 | 36920 ft | 462 kts | 75° |
| 2026-05-06 08:16 | 52.41000 | 3.19358 | 36923 ft | 463 kts | 60° |
| 2026-05-06 08:17 | 52.44541 | 3.28182 | 36927 ft | 464 kts | 56° |
| 2026-05-06 08:17 | 52.48118 | 3.37008 | 36939 ft | 465 kts | 57° |
| 2026-05-06 08:18 | 52.51689 | 3.45877 | 36936 ft | 465 kts | 57° |
| 2026-05-06 08:18 | 52.55247 | 3.54764 | 36933 ft | 466 kts | 57° |
| 2026-05-06 08:19 | 52.58798 | 3.63666 | 36929 ft | 466 kts | 57° |
| 2026-05-06 08:19 | 52.62350 | 3.72592 | 36935 ft | 466 kts | 57° |
| 2026-05-06 08:20 | 52.65907 | 3.81529 | 36937 ft | 466 kts | 57° |
| 2026-05-06 08:20 | 52.69454 | 3.90484 | 36939 ft | 466 kts | 57° |
| 2026-05-06 08:21 | 52.72981 | 3.99454 | 36945 ft | 466 kts | 57° |
| 2026-05-06 08:21 | 52.76509 | 4.08437 | 36929 ft | 466 kts | 58° |
| 2026-05-06 08:22 | 52.80036 | 4.17416 | 36933 ft | 466 kts | 58° |
| 2026-05-06 08:22 | 52.83526 | 4.26353 | 36926 ft | 465 kts | 58° |
| 2026-05-06 08:23 | 52.87027 | 4.35364 | 36925 ft | 465 kts | 58° |
| 2026-05-06 08:23 | 52.90528 | 4.44413 | 36928 ft | 466 kts | 58° |
| 2026-05-06 08:24 | 52.94019 | 4.53459 | 36915 ft | 466 kts | 58° |
| 2026-05-06 08:24 | 52.97509 | 4.62535 | 36903 ft | 467 kts | 58° |
| 2026-05-06 08:25 | 53.00995 | 4.71629 | 36904 ft | 467 kts | 58° |
| 2026-05-06 08:25 | 53.04476 | 4.80752 | 36920 ft | 468 kts | 58° |
| 2026-05-06 08:26 | 53.07955 | 4.89908 | 36921 ft | 469 kts | 58° |
| 2026-05-06 08:26 | 53.11436 | 4.99084 | 36926 ft | 469 kts | 58° |
| 2026-05-06 08:27 | 53.14910 | 5.08278 | 36942 ft | 469 kts | 58° |
| 2026-05-06 08:27 | 53.17794 | 5.15939 | 36929 ft | 470 kts | 59° |
| 2026-05-06 08:28 | 53.21262 | 5.25169 | 36927 ft | 469 kts | 59° |
| 2026-05-06 08:28 | 53.24713 | 5.34416 | 36927 ft | 469 kts | 59° |
| 2026-05-06 08:29 | 53.28721 | 5.45182 | 36929 ft | 470 kts | 59° |
| 2026-05-06 08:29 | 53.31608 | 5.52965 | 36929 ft | 470 kts | 59° |
| 2026-05-06 08:30 | 53.35043 | 5.62249 | 36927 ft | 470 kts | 59° |
| 2026-05-06 08:30 | 53.38475 | 5.71563 | 36901 ft | 469 kts | 59° |
| 2026-05-06 08:31 | 53.41895 | 5.80886 | 36912 ft | 469 kts | 59° |
| 2026-05-06 08:31 | 53.45299 | 5.90223 | 36933 ft | 469 kts | 59° |
| 2026-05-06 08:32 | 53.48701 | 5.99580 | 36931 ft | 469 kts | 59° |
| 2026-05-06 08:32 | 53.52079 | 6.08867 | 36921 ft | 469 kts | 60° |
| 2026-05-06 08:33 | 53.55492 | 6.18286 | 36924 ft | 469 kts | 60° |
| 2026-05-06 08:33 | 53.58845 | 6.27606 | 36923 ft | 469 kts | 60° |
| 2026-05-06 08:34 | 53.63895 | 6.41722 | 36921 ft | 469 kts | 60° |
| 2026-05-06 08:35 | 53.67266 | 6.51161 | 36925 ft | 469 kts | 60° |
| 2026-05-06 08:35 | 53.70626 | 6.60616 | 36926 ft | 469 kts | 60° |
| 2026-05-06 08:36 | 53.73982 | 6.70075 | 36925 ft | 469 kts | 60° |
| 2026-05-06 08:36 | 53.77325 | 6.79554 | 36924 ft | 469 kts | 60° |
| 2026-05-06 08:37 | 53.80656 | 6.89050 | 36937 ft | 469 kts | 61° |
| 2026-05-06 08:37 | 53.83975 | 6.98565 | 36931 ft | 469 kts | 61° |
| 2026-05-06 08:38 | 53.87298 | 7.08083 | 36939 ft | 469 kts | 61° |
| 2026-05-06 08:38 | 53.90617 | 7.17617 | 36935 ft | 470 kts | 61° |
| 2026-05-06 08:39 | 53.93909 | 7.27111 | 36941 ft | 470 kts | 61° |
| 2026-05-06 08:39 | 53.97202 | 7.36691 | 36941 ft | 470 kts | 61° |
| 2026-05-06 08:40 | 54.00485 | 7.46287 | 36938 ft | 469 kts | 62° |
| 2026-05-06 08:40 | 54.03770 | 7.55878 | 36945 ft | 469 kts | 62° |
| 2026-05-06 08:41 | 54.07052 | 7.65499 | 36939 ft | 470 kts | 62° |
| 2026-05-06 08:41 | 54.10317 | 7.75136 | 36938 ft | 470 kts | 62° |
| 2026-05-06 08:42 | 54.13585 | 7.84807 | 36939 ft | 470 kts | 62° |
| 2026-05-06 08:42 | 54.17233 | 7.94070 | 36939 ft | 472 kts | 49° |
| 2026-05-06 08:43 | 54.21791 | 8.02175 | 36934 ft | 473 kts | 47° |
| 2026-05-06 08:43 | 54.26342 | 8.10311 | 36924 ft | 473 kts | 47° |
| 2026-05-06 08:44 | 54.30865 | 8.18437 | 36924 ft | 474 kts | 47° |
| 2026-05-06 08:44 | 54.35414 | 8.26630 | 36925 ft | 474 kts | 47° |
| 2026-05-06 08:45 | 54.39959 | 8.34842 | 36931 ft | 475 kts | 48° |
| 2026-05-06 08:45 | 54.44497 | 8.43078 | 36925 ft | 475 kts | 48° |
| 2026-05-06 08:46 | 54.49039 | 8.51335 | 36927 ft | 476 kts | 47° |
| 2026-05-06 08:46 | 54.53579 | 8.59626 | 36919 ft | 476 kts | 47° |
| 2026-05-06 08:47 | 54.58119 | 8.67952 | 36916 ft | 477 kts | 48° |
| 2026-05-06 08:47 | 54.62668 | 8.76316 | 36927 ft | 477 kts | 48° |
| 2026-05-06 08:48 | 54.67203 | 8.84673 | 36937 ft | 477 kts | 48° |
| 2026-05-06 08:48 | 54.71728 | 8.93058 | 36936 ft | 477 kts | 48° |
| 2026-05-06 08:49 | 54.76265 | 9.01478 | 36926 ft | 478 kts | 48° |
| 2026-05-06 08:49 | 54.80798 | 9.09926 | 36926 ft | 479 kts | 48° |
| 2026-05-06 08:50 | 54.85329 | 9.18416 | 36920 ft | 479 kts | 48° |
| 2026-05-06 08:50 | 54.89778 | 9.26936 | 36780 ft | 480 kts | 50° |
| 2026-05-06 08:50 | 54.91981 | 9.31290 | 36522 ft | 479 kts | 50° |
| 2026-05-06 08:51 | 54.94170 | 9.35663 | 36269 ft | 480 kts | 51° |
| 2026-05-06 08:51 | 54.96360 | 9.40059 | 36011 ft | 481 kts | 51° |
| 2026-05-06 08:51 | 54.98553 | 9.44453 | 35759 ft | 481 kts | 51° |
| 2026-05-06 08:51 | 55.00761 | 9.48857 | 35513 ft | 482 kts | 51° |
| 2026-05-06 08:52 | 55.02974 | 9.53254 | 35264 ft | 482 kts | 51° |
| 2026-05-06 08:52 | 55.05190 | 9.57654 | 35012 ft | 483 kts | 51° |
| 2026-05-06 08:52 | 55.07405 | 9.62056 | 34697 ft | 483 kts | 52° |
| 2026-05-06 08:52 | 55.09468 | 9.66748 | 33655 ft | 488 kts | 61° |
| 2026-05-06 08:53 | 55.11088 | 9.71950 | 32725 ft | 486 kts | 70° |
| 2026-05-06 08:53 | 55.12270 | 9.77461 | 31786 ft | 485 kts | 77° |
| 2026-05-06 08:53 | 55.13269 | 9.83049 | 30871 ft | 489 kts | 76° |
| 2026-05-06 08:53 | 55.14287 | 9.88722 | 30131 ft | 488 kts | 76° |
| 2026-05-06 08:54 | 55.15298 | 9.94353 | 29501 ft | 482 kts | 76° |
| 2026-05-06 08:54 | 55.16286 | 9.99869 | 29287 ft | 468 kts | 76° |
| 2026-05-06 08:54 | 55.17248 | 10.05271 | 28665 ft | 463 kts | 76° |
| 2026-05-06 08:54 | 55.18195 | 10.10633 | 28030 ft | 459 kts | 76° |
| 2026-05-06 08:55 | 55.19130 | 10.15957 | 27399 ft | 456 kts | 76° |
| 2026-05-06 08:55 | 55.20055 | 10.21250 | 26772 ft | 453 kts | 76° |
| 2026-05-06 08:55 | 55.20972 | 10.26507 | 26151 ft | 450 kts | 75° |
| 2026-05-06 08:55 | 55.21883 | 10.31732 | 25531 ft | 447 kts | 75° |
| 2026-05-06 08:56 | 55.22790 | 10.36928 | 24919 ft | 445 kts | 75° |
| 2026-05-06 08:56 | 55.23693 | 10.42107 | 24325 ft | 442 kts | 75° |
| 2026-05-06 08:56 | 55.24587 | 10.47259 | 23731 ft | 440 kts | 75° |
| 2026-05-06 08:56 | 55.25469 | 10.52382 | 23105 ft | 438 kts | 75° |
| 2026-05-06 08:57 | 55.26335 | 10.57462 | 22550 ft | 433 kts | 75° |
| 2026-05-06 08:57 | 55.27192 | 10.62493 | 22017 ft | 428 kts | 75° |
| 2026-05-06 08:57 | 55.28041 | 10.67464 | 21486 ft | 424 kts | 74° |
| 2026-05-06 08:57 | 55.28891 | 10.72398 | 20968 ft | 420 kts | 74° |
| 2026-05-06 08:58 | 55.29733 | 10.77286 | 20440 ft | 417 kts | 74° |
| 2026-05-06 08:58 | 55.30569 | 10.82141 | 19913 ft | 415 kts | 74° |
| 2026-05-06 08:58 | 55.31396 | 10.86982 | 19345 ft | 413 kts | 74° |
| 2026-05-06 08:58 | 55.32215 | 10.91811 | 18772 ft | 411 kts | 74° |
| 2026-05-06 08:59 | 55.33029 | 10.96623 | 18187 ft | 410 kts | 74° |
| 2026-05-06 08:59 | 55.33834 | 11.01426 | 17544 ft | 408 kts | 74° |
| 2026-05-06 08:59 | 55.34629 | 11.06196 | 16934 ft | 405 kts | 74° |
| 2026-05-06 08:59 | 55.35414 | 11.10925 | 16325 ft | 402 kts | 74° |
| 2026-05-06 09:00 | 55.36194 | 11.15639 | 15710 ft | 399 kts | 74° |
| 2026-05-06 09:00 | 55.36966 | 11.20309 | 15134 ft | 396 kts | 74° |
| 2026-05-06 09:00 | 55.37718 | 11.24873 | 14506 ft | 381 kts | 74° |
| 2026-05-06 09:00 | 55.38436 | 11.29252 | 13921 ft | 365 kts | 74° |
| 2026-05-06 09:01 | 55.39115 | 11.33410 | 13324 ft | 351 kts | 74° |
| 2026-05-06 09:01 | 55.39774 | 11.37462 | 12766 ft | 341 kts | 74° |
| 2026-05-06 09:01 | 55.40428 | 11.41470 | 12229 ft | 341 kts | 74° |
| 2026-05-06 09:01 | 55.41083 | 11.45492 | 11680 ft | 342 kts | 74° |
| 2026-05-06 09:02 | 55.41726 | 11.49456 | 11468 ft | 327 kts | 74° |
| 2026-05-06 09:02 | 55.42336 | 11.53239 | 11183 ft | 310 kts | 74° |
| 2026-05-06 09:02 | 55.42910 | 11.56814 | 10879 ft | 301 kts | 74° |
| 2026-05-06 09:02 | 55.43482 | 11.60365 | 10634 ft | 301 kts | 73° |
| 2026-05-06 09:03 | 55.44241 | 11.63761 | 10407 ft | 297 kts | 61° |
| 2026-05-06 09:03 | 55.45349 | 11.66791 | 10153 ft | 293 kts | 54° |
| 2026-05-06 09:03 | 55.46483 | 11.69694 | 9906 ft | 289 kts | 55° |
| 2026-05-06 09:03 | 55.47601 | 11.72581 | 9768 ft | 281 kts | 55° |
| 2026-05-06 09:04 | 55.48686 | 11.75385 | 9629 ft | 273 kts | 54° |
| 2026-05-06 09:04 | 55.49742 | 11.78114 | 9445 ft | 267 kts | 55° |
| 2026-05-06 09:04 | 55.50777 | 11.80794 | 9004 ft | 262 kts | 55° |
| 2026-05-06 09:04 | 55.51790 | 11.83476 | 8231 ft | 267 kts | 60° |
| 2026-05-06 09:05 | 55.52485 | 11.86557 | 7632 ft | 272 kts | 76° |
| 2026-05-06 09:05 | 55.52707 | 11.89875 | 7251 ft | 274 kts | 90° |
| 2026-05-06 09:05 | 55.52478 | 11.93217 | 6894 ft | 274 kts | 98° |
| 2026-05-06 09:05 | 55.52163 | 11.96517 | 6616 ft | 271 kts | 97° |
| 2026-05-06 09:06 | 55.51854 | 11.99772 | 6324 ft | 269 kts | 97° |
| 2026-05-06 09:06 | 55.51546 | 12.03020 | 5960 ft | 268 kts | 98° |
| 2026-05-06 09:06 | 55.51238 | 12.06252 | 5639 ft | 266 kts | 98° |
| 2026-05-06 09:06 | 55.50933 | 12.09459 | 5347 ft | 264 kts | 98° |
| 2026-05-06 09:07 | 55.50628 | 12.12631 | 5057 ft | 261 kts | 98° |
| 2026-05-06 09:07 | 55.50323 | 12.15775 | 4810 ft | 257 kts | 98° |
| 2026-05-06 09:07 | 55.50027 | 12.18820 | 4679 ft | 248 kts | 98° |
| 2026-05-06 09:07 | 55.49737 | 12.21784 | 4542 ft | 241 kts | 98° |
| 2026-05-06 09:08 | 55.49426 | 12.24631 | 4408 ft | 233 kts | 104° |
| 2026-05-06 09:08 | 55.48975 | 12.27328 | 4196 ft | 227 kts | 104° |
| 2026-05-06 09:08 | 55.48535 | 12.29980 | 4017 ft | 222 kts | 104° |
| 2026-05-06 09:08 | 55.48115 | 12.32531 | 3999 ft | 209 kts | 103° |
| 2026-05-06 09:09 | 55.47845 | 12.34163 | 3721 ft | 213 kts | 104° |
| 2026-05-06 09:09 | 55.47425 | 12.36740 | 3165 ft | 224 kts | 102° |
| 2026-05-06 09:09 | 55.47319 | 12.39413 | 2994 ft | 214 kts | 81° |
| 2026-05-06 09:09 | 55.47715 | 12.41832 | 2984 ft | 200 kts | 64° |
| 2026-05-06 09:10 | 55.48489 | 12.43818 | 2839 ft | 196 kts | 46° |
| 2026-05-06 09:10 | 55.49506 | 12.45415 | 2608 ft | 195 kts | 42° |
| 2026-05-06 09:10 | 55.50528 | 12.46978 | 2358 ft | 194 kts | 42° |
| 2026-05-06 09:10 | 55.51535 | 12.48522 | 2115 ft | 189 kts | 43° |
| 2026-05-06 09:11 | 55.52502 | 12.50006 | 1844 ft | 180 kts | 42° |
| 2026-05-06 09:11 | 55.53404 | 12.51392 | 1589 ft | 164 kts | 43° |
| 2026-05-06 09:11 | 55.54223 | 12.52650 | 1397 ft | 145 kts | 43° |
| 2026-05-06 09:11 | 55.54947 | 12.53765 | 1199 ft | 134 kts | 43° |
| 2026-05-06 09:12 | 55.55633 | 12.54821 | 1027 ft | 129 kts | 43° |
| 2026-05-06 09:12 | 55.56311 | 12.55867 | 829 ft | 130 kts | 40° |
| 2026-05-06 09:12 | 55.56986 | 12.56908 | 651 ft | 129 kts | 39° |
| 2026-05-06 09:12 | 55.57665 | 12.57954 | 465 ft | 129 kts | 41° |
| 2026-05-06 09:13 | 55.58342 | 12.58998 | 288 ft | 129 kts | 40° |
| 2026-05-06 09:13 | 55.59014 | 12.60037 | 99 ft | 126 kts | 39° |
| 2026-05-06 09:13 | 55.59669 | 12.61041 | 20 ft | 115 kts | 40° |
| 2026-05-06 09:13 | 55.60167 | 12.61817 | 19 ft | 79 kts | 41° |
| 2026-05-06 09:14 | 55.60531 | 12.62383 | 21 ft | 63 kts | 41° |
| 2026-05-06 09:14 | 55.60843 | 12.62863 | 18 ft | 56 kts | 41° |
| 2026-05-06 09:14 | 55.61120 | 12.63293 | 21 ft | 51 kts | 41° |
| 2026-05-06 09:14 | 55.61377 | 12.63691 | 19 ft | 48 kts | 41° |
| 2026-05-06 09:15 | 55.61586 | 12.64014 | 20 ft | 21 kts | 41° |
| 2026-05-06 09:15 | 55.61715 | 12.64083 | 18 ft | 14 kts | 356° |
| 2026-05-06 09:15 | 55.61816 | 12.64074 | 20 ft | 12 kts | 356° |
| 2026-05-06 09:15 | 55.61904 | 12.64101 | 17 ft | 14 kts | 24° |
| 2026-05-06 09:16 | 55.62004 | 12.64184 | 17 ft | 17 kts | 25° |
| 2026-05-06 09:16 | 55.62123 | 12.64282 | 18 ft | 20 kts | 25° |
| 2026-05-06 09:16 | 55.62251 | 12.64424 | 16 ft | 23 kts | 58° |
| 2026-05-06 09:16 | 55.62317 | 12.64679 | 17 ft | 20 kts | 67° |
| 2026-05-06 09:17 | 55.62332 | 12.64915 | 17 ft | 21 kts | 116° |
| 2026-05-06 09:17 | 55.62272 | 12.65143 | 20 ft | 18 kts | 68° |
| 2026-05-06 09:17 | 55.62387 | 12.65204 | 17 ft | 20 kts | 359° |
| 2026-05-06 09:17 | 55.62524 | 12.65198 | 17 ft | 18 kts | 358° |
| 2026-05-06 09:18 | 55.62561 | 12.65196 | 17 ft | 4 kts | 358° |
| 2026-05-06 09:18 | 55.62598 | 12.65194 | 17 ft | 7 kts | 358° |
| 2026-05-06 09:18 | 55.62606 | 12.65194 | 19 ft | 1 kts | 358° |
| 2026-05-06 09:18 | 55.62626 | 12.65182 | 17 ft | 4 kts | 324° |
| 2026-05-06 09:19 | 55.62636 | 12.65118 | 19 ft | 7 kts | 278° |
| 2026-05-06 09:19 | 55.62640 | 12.65065 | 17 ft | 0 kts | 278° |